Date,TemperatureHighF,TemperatureAvgF,TemperatureLowF,DewpointHighF,DewpointAvgF,DewpointLowF,HumidityHigh,HumidityAvg,HumidityLow,PressureMaxIn,PressureMinIn,WindSpeedMaxMPH,WindSpeedAvgMPH,GustSpeedMaxMPH,PrecipitationSumIn
2013-7-1,86.0,79.4,75.0,79.0,75.1,73.0,95,87,74,29.98,29.87,12,4,25,2.12
2013-7-2,87.0,79.1,73.0,79.0,74.9,71.0,96,87,74,30.07,29.94,8,2,22,0.42
2013-7-3,89.0,78.1,75.0,79.0,74.5,72.0,94,89,72,30.09,30.02,7,3,16,0.38
2013-7-4,90.0,79.4,74.0,79.0,74.4,71.0,95,85,67,30.12,30.03,6,3,22,0.50
2013-7-5,90.0,79.2,74.0,78.0,74.4,72.0,96,86,68,30.12,30.02,10,3,26,0.85
2013-7-6,93.0,81.7,76.0,78.0,75.7,73.0,95,83,56,30.09,29.99,7,2,13,0.42
2013-7-7,94.0,83.3,77.0,77.0,75.5,73.0,93,79,53,30.09,29.99,9,3,17,0.07
2013-7-8,92.0,80.3,77.0,77.0,72.9,-99.9,90,82,54,30.13,30.05,10,3,24,0.34
2013-7-9,89.0,79.1,75.0,77.0,74.5,72.0,95,87,62,30.13,30.03,12,1,22,0.19
2013-7-10,87.0,78.9,75.0,76.0,71.3,-99.9,95,81,66,30.07,29.97,7,1,13,0.03
2013-7-11,88.0,81.7,76.0,78.0,74.8,72.0,94,80,63,30.02,29.92,6,2,14,0.15
2013-7-12,91.0,82.2,77.0,78.0,75.0,73.0,94,80,61,29.96,29.89,6,1,10,0.09
2013-7-13,92.0,82.4,76.0,79.0,75.3,72.0,92,80,62,29.97,29.89,6,3,18,0.05
2013-7-14,80.0,77.8,75.0,75.0,74.0,72.0,92,88,85,30.06,29.93,7,3,17,2.16
2013-7-15,89.0,78.3,75.0,77.0,72.9,71.0,90,84,67,30.07,29.99,5,2,12,0.25
2013-7-16,87.0,79.1,76.0,75.0,73.1,71.0,89,82,66,30.11,30.02,14,5,26,0.02
2013-7-17,85.0,78.9,74.0,75.0,73.0,69.0,91,83,69,30.11,30.01,11,4,22,0.10
2013-7-18,80.0,75.9,73.0,75.0,72.6,70.0,92,90,85,30.11,30.03,5,2,13,0.84
2013-7-19,89.0,79.0,72.0,79.0,74.1,70.0,92,85,68,30.11,30.02,5,2,12,0.01
2013-7-20,93.0,82.2,76.0,81.0,76.2,73.0,94,83,62,30.10,30.01,7,2,13,0.00
2013-7-21,91.0,83.6,78.0,81.0,78.2,75.0,95,85,67,30.12,30.03,5,1,9,0.09
2013-7-22,92.0,83.1,78.0,79.0,76.8,75.0,94,82,60,30.13,30.06,5,2,12,0.01
2013-7-23,93.0,83.5,78.0,78.0,76.4,74.0,95,81,60,30.10,29.98,8,2,13,0.00
2013-7-24,92.0,84.9,79.0,76.0,74.3,73.0,83,71,55,30.02,29.93,10,5,16,0.00
2013-7-25,91.0,84.4,81.0,78.0,75.4,73.0,81,75,67,30.02,29.91,10,6,16,0.00
2013-7-26,92.0,84.7,78.0,79.0,76.7,74.0,92,78,64,30.01,29.95,12,6,29,0.30
2013-7-27,93.0,86.2,80.0,79.0,77.0,75.0,91,74,61,29.99,29.92,11,5,15,0.21
2013-7-28,94.0,84.9,77.0,77.0,74.6,72.0,91,73,52,30.04,29.93,7,2,12,0.00
2013-7-29,96.0,82.2,75.0,79.0,75.6,73.0,96,82,54,30.12,30.01,9,2,20,1.18
2013-7-30,92.0,80.2,75.0,80.0,76.5,73.0,96,89,65,30.15,30.06,9,1,21,2.09
2013-7-31,93.0,81.7,78.0,79.0,76.6,75.0,95,86,62,30.11,29.99,3,1,9,0.19